sensor_id;sensor_type;location;lat;lon;timestamp;P1;durP1;ratioP1;P2;durP2;ratioP2
73852;SDS011;62191;51.548;5.688;2022-10-17T00:00:38;44.08;;;23.73;;
73852;SDS011;62191;51.548;5.688;2022-10-17T00:03:06;37.90;;;23.38;;
73852;SDS011;62191;51.548;5.688;2022-10-17T00:05:33;43.05;;;23.92;;
73852;SDS011;62191;51.548;5.688;2022-10-17T00:08:02;51.40;;;27.40;;
73852;SDS011;62191;51.548;5.688;2022-10-17T00:10:30;54.48;;;26.85;;
73852;SDS011;62191;51.548;5.688;2022-10-17T00:12:57;48.23;;;24.82;;
73852;SDS011;62191;51.548;5.688;2022-10-17T00:15:24;48.92;;;27.37;;
73852;SDS011;62191;51.548;5.688;2022-10-17T00:17:51;50.65;;;28.42;;
73852;SDS011;62191;51.548;5.688;2022-10-17T00:20:19;48.55;;;25.92;;
73852;SDS011;62191;51.548;5.688;2022-10-17T00:22:46;43.58;;;25.85;;
73852;SDS011;62191;51.548;5.688;2022-10-17T00:25:13;35.68;;;20.97;;
73852;SDS011;62191;51.548;5.688;2022-10-17T00:27:41;45.83;;;24.18;;
73852;SDS011;62191;51.548;5.688;2022-10-17T00:30:10;50.35;;;27.82;;
73852;SDS011;62191;51.548;5.688;2022-10-17T00:32:38;44.95;;;26.57;;
73852;SDS011;62191;51.548;5.688;2022-10-17T00:35:06;46.08;;;24.92;;
73852;SDS011;62191;51.548;5.688;2022-10-17T00:37:34;53.00;;;26.57;;
73852;SDS011;62191;51.548;5.688;2022-10-17T00:40:01;47.43;;;25.25;;
73852;SDS011;62191;51.548;5.688;2022-10-17T00:42:29;34.58;;;21.62;;
73852;SDS011;62191;51.548;5.688;2022-10-17T00:45:09;46.13;;;25.23;;
73852;SDS011;62191;51.548;5.688;2022-10-17T00:47:33;45.80;;;23.40;;
73852;SDS011;62191;51.548;5.688;2022-10-17T00:50:02;45.25;;;23.52;;
73852;SDS011;62191;51.548;5.688;2022-10-17T00:52:30;47.00;;;24.45;;
73852;SDS011;62191;51.548;5.688;2022-10-17T00:55:04;56.25;;;22.77;;
73852;SDS011;62191;51.548;5.688;2022-10-17T00:57:29;39.23;;;21.75;;
73852;SDS011;62191;51.548;5.688;2022-10-17T00:59:57;43.73;;;23.22;;
73852;SDS011;62191;51.548;5.688;2022-10-17T01:02:25;43.25;;;21.87;;
73852;SDS011;62191;51.548;5.688;2022-10-17T01:04:53;44.77;;;23.70;;
73852;SDS011;62191;51.548;5.688;2022-10-17T01:07:24;36.63;;;19.27;;
73852;SDS011;62191;51.548;5.688;2022-10-17T01:09:53;40.40;;;21.37;;
73852;SDS011;62191;51.548;5.688;2022-10-17T01:12:30;43.05;;;20.52;;
73852;SDS011;62191;51.548;5.688;2022-10-17T01:21:02;39.45;;;22.27;;
73852;SDS011;62191;51.548;5.688;2022-10-17T01:23:53;41.68;;;23.30;;
73852;SDS011;62191;51.548;5.688;2022-10-17T01:26:26;37.35;;;20.72;;
73852;SDS011;62191;51.548;5.688;2022-10-17T01:31:54;38.00;;;20.20;;
73852;SDS011;62191;51.548;5.688;2022-10-17T01:40:02;39.95;;;22.07;;
73852;SDS011;62191;51.548;5.688;2022-10-17T01:42:54;42.58;;;22.45;;
73852;SDS011;62191;51.548;5.688;2022-10-17T01:48:02;50.03;;;24.92;;
73852;SDS011;62191;51.548;5.688;2022-10-17T01:50:32;40.35;;;22.13;;
73852;SDS011;62191;51.548;5.688;2022-10-17T01:53:06;38.23;;;21.68;;
73852;SDS011;62191;51.548;5.688;2022-10-17T01:55:41;45.73;;;22.62;;
73852;SDS011;62191;51.548;5.688;2022-10-17T01:58:15;38.40;;;21.48;;
73852;SDS011;62191;51.548;5.688;2022-10-17T02:00:43;39.83;;;22.47;;
73852;SDS011;62191;51.548;5.688;2022-10-17T02:03:13;42.78;;;24.10;;
73852;SDS011;62191;51.548;5.688;2022-10-17T02:05:41;34.23;;;19.85;;
73852;SDS011;62191;51.548;5.688;2022-10-17T02:08:10;38.10;;;19.25;;
73852;SDS011;62191;51.548;5.688;2022-10-17T02:10:38;35.88;;;19.48;;
73852;SDS011;62191;51.548;5.688;2022-10-17T02:24:30;38.17;;;19.80;;
73852;SDS011;62191;51.548;5.688;2022-10-17T02:29:52;41.77;;;21.65;;
73852;SDS011;62191;51.548;5.688;2022-10-17T02:32:27;43.25;;;23.10;;
73852;SDS011;62191;51.548;5.688;2022-10-17T02:34:56;49.70;;;26.85;;
73852;SDS011;62191;51.548;5.688;2022-10-17T02:37:26;45.67;;;22.85;;
73852;SDS011;62191;51.548;5.688;2022-10-17T02:39:54;53.28;;;26.27;;
73852;SDS011;62191;51.548;5.688;2022-10-17T02:42:23;41.37;;;22.55;;
73852;SDS011;62191;51.548;5.688;2022-10-17T02:44:51;38.95;;;21.62;;
73852;SDS011;62191;51.548;5.688;2022-10-17T02:47:24;48.17;;;22.35;;
73852;SDS011;62191;51.548;5.688;2022-10-17T02:49:58;53.95;;;24.35;;
73852;SDS011;62191;51.548;5.688;2022-10-17T02:52:25;51.95;;;24.52;;
73852;SDS011;62191;51.548;5.688;2022-10-17T02:57:48;42.93;;;24.02;;
73852;SDS011;62191;51.548;5.688;2022-10-17T03:00:17;46.30;;;25.12;;
73852;SDS011;62191;51.548;5.688;2022-10-17T03:02:47;55.03;;;19.98;;
73852;SDS011;62191;51.548;5.688;2022-10-17T03:05:17;59.85;;;23.05;;
73852;SDS011;62191;51.548;5.688;2022-10-17T03:07:46;35.25;;;21.17;;
73852;SDS011;62191;51.548;5.688;2022-10-17T03:10:13;44.85;;;23.50;;
73852;SDS011;62191;51.548;5.688;2022-10-17T03:12:41;41.18;;;24.37;;
73852;SDS011;62191;51.548;5.688;2022-10-17T03:15:08;49.08;;;26.23;;
73852;SDS011;62191;51.548;5.688;2022-10-17T03:17:36;47.48;;;25.05;;
73852;SDS011;62191;51.548;5.688;2022-10-17T03:20:06;201.32;;;29.00;;
73852;SDS011;62191;51.548;5.688;2022-10-17T03:22:33;58.13;;;26.27;;
73852;SDS011;62191;51.548;5.688;2022-10-17T03:25:00;59.25;;;26.95;;
73852;SDS011;62191;51.548;5.688;2022-10-17T03:27:27;54.20;;;26.75;;
73852;SDS011;62191;51.548;5.688;2022-10-17T03:29:55;49.40;;;25.23;;
73852;SDS011;62191;51.548;5.688;2022-10-17T03:32:22;50.33;;;24.02;;
73852;SDS011;62191;51.548;5.688;2022-10-17T03:34:49;46.55;;;25.08;;
73852;SDS011;62191;51.548;5.688;2022-10-17T03:37:16;55.98;;;26.27;;
73852;SDS011;62191;51.548;5.688;2022-10-17T03:39:44;56.05;;;27.37;;
73852;SDS011;62191;51.548;5.688;2022-10-17T03:42:12;53.75;;;27.00;;
73852;SDS011;62191;51.548;5.688;2022-10-17T03:44:40;64.37;;;28.07;;
73852;SDS011;62191;51.548;5.688;2022-10-17T03:47:07;56.08;;;27.42;;
73852;SDS011;62191;51.548;5.688;2022-10-17T03:49:34;49.98;;;27.25;;
73852;SDS011;62191;51.548;5.688;2022-10-17T03:52:02;53.87;;;25.97;;
73852;SDS011;62191;51.548;5.688;2022-10-17T03:54:29;55.38;;;26.10;;
73852;SDS011;62191;51.548;5.688;2022-10-17T03:56:56;38.90;;;23.80;;
73852;SDS011;62191;51.548;5.688;2022-10-17T03:59:24;50.78;;;26.02;;
73852;SDS011;62191;51.548;5.688;2022-10-17T04:01:51;42.00;;;24.52;;
73852;SDS011;62191;51.548;5.688;2022-10-17T04:04:20;49.33;;;27.22;;
73852;SDS011;62191;51.548;5.688;2022-10-17T04:06:47;49.08;;;27.13;;
73852;SDS011;62191;51.548;5.688;2022-10-17T04:09:15;43.17;;;25.88;;
73852;SDS011;62191;51.548;5.688;2022-10-17T04:11:42;39.23;;;24.37;;
73852;SDS011;62191;51.548;5.688;2022-10-17T04:14:09;45.08;;;25.27;;
73852;SDS011;62191;51.548;5.688;2022-10-17T04:16:37;40.60;;;24.00;;
73852;SDS011;62191;51.548;5.688;2022-10-17T04:19:05;38.15;;;22.95;;
73852;SDS011;62191;51.548;5.688;2022-10-17T04:21:34;45.23;;;24.27;;
73852;SDS011;62191;51.548;5.688;2022-10-17T04:24:01;39.30;;;22.98;;
73852;SDS011;62191;51.548;5.688;2022-10-17T04:26:28;28.27;;;19.50;;
73852;SDS011;62191;51.548;5.688;2022-10-17T04:28:55;38.83;;;22.07;;
73852;SDS011;62191;51.548;5.688;2022-10-17T04:31:23;32.80;;;21.80;;
73852;SDS011;62191;51.548;5.688;2022-10-17T04:33:53;32.85;;;21.30;;
73852;SDS011;62191;51.548;5.688;2022-10-17T04:36:20;25.90;;;18.52;;
73852;SDS011;62191;51.548;5.688;2022-10-17T04:38:47;32.83;;;20.10;;
73852;SDS011;62191;51.548;5.688;2022-10-17T04:41:15;27.07;;;17.77;;
73852;SDS011;62191;51.548;5.688;2022-10-17T04:43:44;31.57;;;19.57;;
73852;SDS011;62191;51.548;5.688;2022-10-17T04:46:12;28.47;;;17.87;;
73852;SDS011;62191;51.548;5.688;2022-10-17T04:48:40;29.75;;;18.05;;
73852;SDS011;62191;51.548;5.688;2022-10-17T04:51:12;25.80;;;17.75;;
73852;SDS011;62191;51.548;5.688;2022-10-17T04:53:41;26.20;;;16.57;;
73852;SDS011;62191;51.548;5.688;2022-10-17T04:58:40;23.02;;;16.32;;
73852;SDS011;62191;51.548;5.688;2022-10-17T05:01:08;24.72;;;16.55;;
73852;SDS011;62191;51.548;5.688;2022-10-17T05:03:37;27.15;;;17.42;;
73852;SDS011;62191;51.548;5.688;2022-10-17T05:06:05;23.77;;;17.32;;
73852;SDS011;62191;51.548;5.688;2022-10-17T05:11:18;27.13;;;18.73;;
73852;SDS011;62191;51.548;5.688;2022-10-17T05:13:53;27.40;;;17.05;;
73852;SDS011;62191;51.548;5.688;2022-10-17T05:16:25;32.28;;;17.00;;
73852;SDS011;62191;51.548;5.688;2022-10-17T05:18:55;28.05;;;17.45;;
73852;SDS011;62191;51.548;5.688;2022-10-17T05:21:24;24.98;;;16.12;;
73852;SDS011;62191;51.548;5.688;2022-10-17T05:23:51;23.60;;;16.20;;
73852;SDS011;62191;51.548;5.688;2022-10-17T05:26:19;26.10;;;16.27;;
73852;SDS011;62191;51.548;5.688;2022-10-17T05:28:47;21.70;;;16.73;;
73852;SDS011;62191;51.548;5.688;2022-10-17T05:31:14;24.70;;;17.20;;
73852;SDS011;62191;51.548;5.688;2022-10-17T05:33:41;28.65;;;18.07;;
73852;SDS011;62191;51.548;5.688;2022-10-17T05:36:08;26.42;;;17.52;;
73852;SDS011;62191;51.548;5.688;2022-10-17T05:38:36;26.12;;;17.37;;
73852;SDS011;62191;51.548;5.688;2022-10-17T05:41:03;26.75;;;15.98;;
73852;SDS011;62191;51.548;5.688;2022-10-17T05:43:31;23.22;;;17.32;;
73852;SDS011;62191;51.548;5.688;2022-10-17T05:46:04;28.15;;;17.30;;
73852;SDS011;62191;51.548;5.688;2022-10-17T05:48:29;28.83;;;18.17;;
73852;SDS011;62191;51.548;5.688;2022-10-17T05:50:57;28.65;;;17.32;;
73852;SDS011;62191;51.548;5.688;2022-10-17T05:53:28;30.85;;;18.20;;
73852;SDS011;62191;51.548;5.688;2022-10-17T05:55:59;33.35;;;19.45;;
73852;SDS011;62191;51.548;5.688;2022-10-17T05:58:28;23.80;;;16.77;;
73852;SDS011;62191;51.548;5.688;2022-10-17T06:00:59;26.85;;;17.40;;
73852;SDS011;62191;51.548;5.688;2022-10-17T06:03:28;26.52;;;16.23;;
73852;SDS011;62191;51.548;5.688;2022-10-17T06:05:56;21.87;;;15.95;;
73852;SDS011;62191;51.548;5.688;2022-10-17T06:08:31;26.87;;;16.25;;
73852;SDS011;62191;51.548;5.688;2022-10-17T06:10:59;27.75;;;16.93;;
73852;SDS011;62191;51.548;5.688;2022-10-17T06:13:26;26.62;;;15.88;;
73852;SDS011;62191;51.548;5.688;2022-10-17T06:15:53;23.30;;;16.05;;
73852;SDS011;62191;51.548;5.688;2022-10-17T06:18:21;28.80;;;17.55;;
73852;SDS011;62191;51.548;5.688;2022-10-17T06:20:48;23.07;;;16.25;;
73852;SDS011;62191;51.548;5.688;2022-10-17T06:23:15;25.20;;;16.37;;
73852;SDS011;62191;51.548;5.688;2022-10-17T06:25:43;21.45;;;14.98;;
73852;SDS011;62191;51.548;5.688;2022-10-17T06:28:10;19.23;;;14.50;;
73852;SDS011;62191;51.548;5.688;2022-10-17T06:30:38;22.95;;;15.03;;
73852;SDS011;62191;51.548;5.688;2022-10-17T06:33:06;18.95;;;14.47;;
73852;SDS011;62191;51.548;5.688;2022-10-17T06:35:33;20.65;;;14.47;;
73852;SDS011;62191;51.548;5.688;2022-10-17T06:38:01;20.12;;;13.48;;
73852;SDS011;62191;51.548;5.688;2022-10-17T06:40:29;23.27;;;14.47;;
73852;SDS011;62191;51.548;5.688;2022-10-17T06:42:56;19.45;;;12.20;;
73852;SDS011;62191;51.548;5.688;2022-10-17T06:45:24;21.68;;;13.90;;
73852;SDS011;62191;51.548;5.688;2022-10-17T06:47:51;18.92;;;13.85;;
73852;SDS011;62191;51.548;5.688;2022-10-17T06:50:18;19.23;;;13.40;;
73852;SDS011;62191;51.548;5.688;2022-10-17T06:52:49;20.60;;;13.70;;
73852;SDS011;62191;51.548;5.688;2022-10-17T06:55:17;19.85;;;14.70;;
73852;SDS011;62191;51.548;5.688;2022-10-17T06:57:44;18.45;;;13.85;;
73852;SDS011;62191;51.548;5.688;2022-10-17T07:00:12;28.92;;;16.93;;
73852;SDS011;62191;51.548;5.688;2022-10-17T07:02:41;20.17;;;13.32;;
73852;SDS011;62191;51.548;5.688;2022-10-17T07:05:08;21.80;;;12.88;;
73852;SDS011;62191;51.548;5.688;2022-10-17T07:07:36;19.10;;;12.82;;
73852;SDS011;62191;51.548;5.688;2022-10-17T07:10:04;21.93;;;13.15;;
73852;SDS011;62191;51.548;5.688;2022-10-17T07:12:33;16.67;;;12.47;;
73852;SDS011;62191;51.548;5.688;2022-10-17T07:15:00;19.67;;;11.57;;
73852;SDS011;62191;51.548;5.688;2022-10-17T07:17:29;13.05;;;11.65;;
73852;SDS011;62191;51.548;5.688;2022-10-17T07:19:56;18.73;;;12.15;;
73852;SDS011;62191;51.548;5.688;2022-10-17T07:22:24;18.57;;;10.80;;
73852;SDS011;62191;51.548;5.688;2022-10-17T07:24:51;16.07;;;11.05;;
73852;SDS011;62191;51.548;5.688;2022-10-17T07:27:18;15.58;;;11.57;;
73852;SDS011;62191;51.548;5.688;2022-10-17T07:29:46;14.90;;;11.83;;
73852;SDS011;62191;51.548;5.688;2022-10-17T07:32:13;16.37;;;11.80;;
73852;SDS011;62191;51.548;5.688;2022-10-17T07:34:40;15.65;;;11.57;;
73852;SDS011;62191;51.548;5.688;2022-10-17T07:37:09;16.75;;;10.72;;
73852;SDS011;62191;51.548;5.688;2022-10-17T07:39:37;17.62;;;11.08;;
73852;SDS011;62191;51.548;5.688;2022-10-17T07:42:04;18.92;;;11.75;;
73852;SDS011;62191;51.548;5.688;2022-10-17T07:44:34;18.67;;;11.08;;
73852;SDS011;62191;51.548;5.688;2022-10-17T07:47:02;16.95;;;10.40;;
73852;SDS011;62191;51.548;5.688;2022-10-17T07:49:29;10.65;;;8.78;;
73852;SDS011;62191;51.548;5.688;2022-10-17T07:51:57;14.93;;;10.48;;
73852;SDS011;62191;51.548;5.688;2022-10-17T07:54:24;13.88;;;9.63;;
73852;SDS011;62191;51.548;5.688;2022-10-17T07:56:53;13.95;;;9.75;;
73852;SDS011;62191;51.548;5.688;2022-10-17T07:59:21;15.55;;;9.18;;
73852;SDS011;62191;51.548;5.688;2022-10-17T08:01:49;14.98;;;8.65;;
73852;SDS011;62191;51.548;5.688;2022-10-17T08:04:16;16.73;;;9.35;;
73852;SDS011;62191;51.548;5.688;2022-10-17T08:06:43;14.38;;;8.25;;
73852;SDS011;62191;51.548;5.688;2022-10-17T08:09:11;14.87;;;8.35;;
73852;SDS011;62191;51.548;5.688;2022-10-17T08:11:38;16.85;;;8.35;;
73852;SDS011;62191;51.548;5.688;2022-10-17T08:14:07;13.55;;;7.87;;
73852;SDS011;62191;51.548;5.688;2022-10-17T08:16:35;11.68;;;7.70;;
73852;SDS011;62191;51.548;5.688;2022-10-17T08:19:02;11.60;;;7.17;;
73852;SDS011;62191;51.548;5.688;2022-10-17T08:21:30;13.30;;;7.37;;
73852;SDS011;62191;51.548;5.688;2022-10-17T08:23:57;9.75;;;6.67;;
73852;SDS011;62191;51.548;5.688;2022-10-17T08:26:26;12.50;;;7.50;;
73852;SDS011;62191;51.548;5.688;2022-10-17T08:28:53;9.65;;;7.10;;
73852;SDS011;62191;51.548;5.688;2022-10-17T08:31:21;8.73;;;7.00;;
73852;SDS011;62191;51.548;5.688;2022-10-17T08:36:20;15.20;;;6.75;;
73852;SDS011;62191;51.548;5.688;2022-10-17T08:38:48;15.58;;;7.47;;
73852;SDS011;62191;51.548;5.688;2022-10-17T08:44:19;11.43;;;6.15;;
73852;SDS011;62191;51.548;5.688;2022-10-17T08:46:56;9.88;;;6.83;;
73852;SDS011;62191;51.548;5.688;2022-10-17T08:49:35;11.60;;;6.97;;
73852;SDS011;62191;51.548;5.688;2022-10-17T08:52:05;9.95;;;6.67;;
73852;SDS011;62191;51.548;5.688;2022-10-17T08:54:51;12.98;;;6.78;;
73852;SDS011;62191;51.548;5.688;2022-10-17T08:57:16;14.15;;;7.08;;
73852;SDS011;62191;51.548;5.688;2022-10-17T08:59:40;13.13;;;7.22;;
73852;SDS011;62191;51.548;5.688;2022-10-17T09:07:38;11.38;;;6.40;;
73852;SDS011;62191;51.548;5.688;2022-10-17T09:18:41;15.05;;;5.90;;
73852;SDS011;62191;51.548;5.688;2022-10-17T09:21:22;10.10;;;6.17;;
73852;SDS011;62191;51.548;5.688;2022-10-17T09:23:57;8.90;;;5.75;;
73852;SDS011;62191;51.548;5.688;2022-10-17T09:26:26;10.78;;;6.60;;
73852;SDS011;62191;51.548;5.688;2022-10-17T09:28:58;11.83;;;6.62;;
73852;SDS011;62191;51.548;5.688;2022-10-17T09:31:28;9.45;;;6.50;;
73852;SDS011;62191;51.548;5.688;2022-10-17T09:34:02;18.27;;;7.92;;
73852;SDS011;62191;51.548;5.688;2022-10-17T09:36:31;20.48;;;9.50;;
73852;SDS011;62191;51.548;5.688;2022-10-17T09:39:11;20.20;;;9.75;;
73852;SDS011;62191;51.548;5.688;2022-10-17T09:41:38;18.32;;;10.65;;
73852;SDS011;62191;51.548;5.688;2022-10-17T09:44:14;17.02;;;9.95;;
73852;SDS011;62191;51.548;5.688;2022-10-17T09:49:46;17.02;;;11.28;;
73852;SDS011;62191;51.548;5.688;2022-10-17T09:54:48;31.70;;;14.65;;
73852;SDS011;62191;51.548;5.688;2022-10-17T09:57:17;20.85;;;12.23;;
73852;SDS011;62191;51.548;5.688;2022-10-17T09:59:47;20.57;;;12.20;;
73852;SDS011;62191;51.548;5.688;2022-10-17T10:02:20;21.60;;;13.32;;
73852;SDS011;62191;51.548;5.688;2022-10-17T10:04:56;24.57;;;14.83;;
73852;SDS011;62191;51.548;5.688;2022-10-17T10:07:30;25.82;;;14.20;;
73852;SDS011;62191;51.548;5.688;2022-10-17T10:09:59;21.00;;;13.32;;
73852;SDS011;62191;51.548;5.688;2022-10-17T10:12:35;20.57;;;14.75;;
73852;SDS011;62191;51.548;5.688;2022-10-17T10:15:47;23.90;;;14.07;;
73852;SDS011;62191;51.548;5.688;2022-10-17T10:17:40;27.22;;;16.93;;
73852;SDS011;62191;51.548;5.688;2022-10-17T10:23:09;30.57;;;16.37;;
73852;SDS011;62191;51.548;5.688;2022-10-17T10:25:32;30.48;;;17.37;;
73852;SDS011;62191;51.548;5.688;2022-10-17T10:28:01;32.40;;;16.15;;
73852;SDS011;62191;51.548;5.688;2022-10-17T10:30:31;34.45;;;15.93;;
73852;SDS011;62191;51.548;5.688;2022-10-17T10:32:59;20.50;;;13.50;;
73852;SDS011;62191;51.548;5.688;2022-10-17T10:35:33;26.37;;;17.55;;
73852;SDS011;62191;51.548;5.688;2022-10-17T10:38:02;25.23;;;16.45;;
73852;SDS011;62191;51.548;5.688;2022-10-17T10:40:34;25.75;;;15.83;;
73852;SDS011;62191;51.548;5.688;2022-10-17T10:43:02;25.52;;;16.70;;
73852;SDS011;62191;51.548;5.688;2022-10-17T10:56:14;21.55;;;14.35;;
73852;SDS011;62191;51.548;5.688;2022-10-17T11:01:25;20.67;;;14.20;;
73852;SDS011;62191;51.548;5.688;2022-10-17T11:04:07;24.18;;;14.90;;
73852;SDS011;62191;51.548;5.688;2022-10-17T11:06:44;18.42;;;13.90;;
73852;SDS011;62191;51.548;5.688;2022-10-17T11:09:13;25.37;;;15.05;;
73852;SDS011;62191;51.548;5.688;2022-10-17T11:11:51;31.40;;;18.27;;
73852;SDS011;62191;51.548;5.688;2022-10-17T11:20:05;17.87;;;15.28;;
73852;SDS011;62191;51.548;5.688;2022-10-17T11:22:36;25.70;;;16.20;;
73852;SDS011;62191;51.548;5.688;2022-10-17T11:25:03;28.50;;;18.80;;
73852;SDS011;62191;51.548;5.688;2022-10-17T11:27:30;19.87;;;14.43;;
73852;SDS011;62191;51.548;5.688;2022-10-17T11:32:37;21.42;;;14.60;;
73852;SDS011;62191;51.548;5.688;2022-10-17T11:40:30;24.37;;;16.87;;
73852;SDS011;62191;51.548;5.688;2022-10-17T11:43:05;24.57;;;16.12;;
73852;SDS011;62191;51.548;5.688;2022-10-17T11:48:08;30.88;;;18.70;;
73852;SDS011;62191;51.548;5.688;2022-10-17T11:50:47;28.42;;;19.75;;
73852;SDS011;62191;51.548;5.688;2022-10-17T11:53:19;40.40;;;20.48;;
73852;SDS011;62191;51.548;5.688;2022-10-17T11:55:51;26.52;;;20.05;;
73852;SDS011;62191;51.548;5.688;2022-10-17T11:58:24;33.95;;;21.97;;
73852;SDS011;62191;51.548;5.688;2022-10-17T12:01:14;43.85;;;22.87;;
73852;SDS011;62191;51.548;5.688;2022-10-17T12:04:11;35.45;;;21.80;;
73852;SDS011;62191;51.548;5.688;2022-10-17T12:06:46;42.30;;;22.58;;
73852;SDS011;62191;51.548;5.688;2022-10-17T12:12:10;40.43;;;22.40;;
73852;SDS011;62191;51.548;5.688;2022-10-17T12:14:41;40.03;;;23.70;;
73852;SDS011;62191;51.548;5.688;2022-10-17T12:19:46;32.63;;;21.15;;
73852;SDS011;62191;51.548;5.688;2022-10-17T12:22:17;34.45;;;21.85;;
73852;SDS011;62191;51.548;5.688;2022-10-17T12:24:59;27.33;;;18.87;;
73852;SDS011;62191;51.548;5.688;2022-10-17T12:27:30;29.30;;;20.12;;
73852;SDS011;62191;51.548;5.688;2022-10-17T12:32:57;38.05;;;21.20;;
73852;SDS011;62191;51.548;5.688;2022-10-17T12:35:31;34.70;;;21.20;;
73852;SDS011;62191;51.548;5.688;2022-10-17T12:38:06;38.25;;;21.85;;
73852;SDS011;62191;51.548;5.688;2022-10-17T12:45:57;19.90;;;13.18;;
73852;SDS011;62191;51.548;5.688;2022-10-17T12:56:33;14.47;;;11.53;;
73852;SDS011;62191;51.548;5.688;2022-10-17T12:59:14;21.07;;;13.35;;
73852;SDS011;62191;51.548;5.688;2022-10-17T13:01:39;16.67;;;12.68;;
73852;SDS011;62191;51.548;5.688;2022-10-17T13:04:09;13.88;;;11.78;;
73852;SDS011;62191;51.548;5.688;2022-10-17T13:06:44;21.07;;;12.70;;
73852;SDS011;62191;51.548;5.688;2022-10-17T13:09:16;21.15;;;14.35;;
73852;SDS011;62191;51.548;5.688;2022-10-17T13:11:52;23.92;;;16.62;;
73852;SDS011;62191;51.548;5.688;2022-10-17T13:14:21;27.27;;;18.60;;
73852;SDS011;62191;51.548;5.688;2022-10-17T13:16:53;22.10;;;15.45;;
73852;SDS011;62191;51.548;5.688;2022-10-17T13:19:26;24.60;;;13.60;;
73852;SDS011;62191;51.548;5.688;2022-10-17T13:21:56;16.52;;;13.43;;
73852;SDS011;62191;51.548;5.688;2022-10-17T13:26:59;18.50;;;12.58;;
73852;SDS011;62191;51.548;5.688;2022-10-17T13:29:27;17.85;;;11.28;;
73852;SDS011;62191;51.548;5.688;2022-10-17T13:32:00;19.50;;;12.13;;
73852;SDS011;62191;51.548;5.688;2022-10-17T13:34:29;19.23;;;12.23;;
73852;SDS011;62191;51.548;5.688;2022-10-17T13:37:01;21.05;;;14.25;;
73852;SDS011;62191;51.548;5.688;2022-10-17T13:39:34;20.32;;;13.58;;
73852;SDS011;62191;51.548;5.688;2022-10-17T13:42:06;24.82;;;14.65;;
73852;SDS011;62191;51.548;5.688;2022-10-17T13:44:45;25.45;;;15.68;;
73852;SDS011;62191;51.548;5.688;2022-10-17T13:47:22;21.05;;;14.98;;
73852;SDS011;62191;51.548;5.688;2022-10-17T13:49:51;24.30;;;14.80;;
73852;SDS011;62191;51.548;5.688;2022-10-17T13:52:24;21.37;;;15.28;;
73852;SDS011;62191;51.548;5.688;2022-10-17T13:54:52;19.12;;;13.28;;
73852;SDS011;62191;51.548;5.688;2022-10-17T13:57:24;23.87;;;13.55;;
73852;SDS011;62191;51.548;5.688;2022-10-17T13:59:54;23.25;;;14.33;;
73852;SDS011;62191;51.548;5.688;2022-10-17T14:02:26;24.87;;;15.55;;
73852;SDS011;62191;51.548;5.688;2022-10-17T14:07:43;24.23;;;14.83;;
73852;SDS011;62191;51.548;5.688;2022-10-17T14:10:40;26.15;;;15.55;;
73852;SDS011;62191;51.548;5.688;2022-10-17T14:12:59;22.98;;;15.18;;
73852;SDS011;62191;51.548;5.688;2022-10-17T14:15:29;26.27;;;17.15;;
73852;SDS011;62191;51.548;5.688;2022-10-17T14:18:01;24.20;;;14.98;;
73852;SDS011;62191;51.548;5.688;2022-10-17T14:20:31;24.30;;;16.53;;
73852;SDS011;62191;51.548;5.688;2022-10-17T14:22:59;22.85;;;16.25;;
73852;SDS011;62191;51.548;5.688;2022-10-17T14:28:00;20.10;;;14.55;;
73852;SDS011;62191;51.548;5.688;2022-10-17T14:30:31;22.37;;;14.83;;
73852;SDS011;62191;51.548;5.688;2022-10-17T14:33:01;21.07;;;15.00;;
73852;SDS011;62191;51.548;5.688;2022-10-17T14:35:30;26.52;;;15.93;;
73852;SDS011;62191;51.548;5.688;2022-10-17T14:38:03;28.15;;;14.28;;
73852;SDS011;62191;51.548;5.688;2022-10-17T14:40:28;20.85;;;15.48;;
73852;SDS011;62191;51.548;5.688;2022-10-17T14:42:57;26.07;;;16.45;;
73852;SDS011;62191;51.548;5.688;2022-10-17T14:45:29;23.07;;;15.55;;
73852;SDS011;62191;51.548;5.688;2022-10-17T14:48:08;24.43;;;16.30;;
73852;SDS011;62191;51.548;5.688;2022-10-17T14:50:39;20.15;;;16.37;;
73852;SDS011;62191;51.548;5.688;2022-10-17T14:55:57;22.67;;;15.50;;
73852;SDS011;62191;51.548;5.688;2022-10-17T14:58:26;21.70;;;14.45;;
73852;SDS011;62191;51.548;5.688;2022-10-17T15:00:59;22.95;;;14.83;;
73852;SDS011;62191;51.548;5.688;2022-10-17T15:03:26;23.73;;;16.70;;
73852;SDS011;62191;51.548;5.688;2022-10-17T15:05:54;27.20;;;16.15;;
73852;SDS011;62191;51.548;5.688;2022-10-17T15:08:22;24.90;;;17.07;;
73852;SDS011;62191;51.548;5.688;2022-10-17T15:10:50;23.32;;;17.95;;
73852;SDS011;62191;51.548;5.688;2022-10-17T15:13:17;26.33;;;18.05;;
73852;SDS011;62191;51.548;5.688;2022-10-17T15:15:45;27.93;;;18.27;;
73852;SDS011;62191;51.548;5.688;2022-10-17T15:18:14;26.25;;;18.37;;
73852;SDS011;62191;51.548;5.688;2022-10-17T15:20:41;30.88;;;19.07;;
73852;SDS011;62191;51.548;5.688;2022-10-17T15:23:09;24.95;;;19.10;;
73852;SDS011;62191;51.548;5.688;2022-10-17T15:25:36;25.27;;;18.95;;
73852;SDS011;62191;51.548;5.688;2022-10-17T15:28:03;22.98;;;17.87;;
73852;SDS011;62191;51.548;5.688;2022-10-17T15:30:33;26.42;;;18.37;;
73852;SDS011;62191;51.548;5.688;2022-10-17T15:33:01;29.42;;;19.70;;
73852;SDS011;62191;51.548;5.688;2022-10-17T15:35:28;30.45;;;20.48;;
73852;SDS011;62191;51.548;5.688;2022-10-17T15:37:55;28.15;;;18.57;;
73852;SDS011;62191;51.548;5.688;2022-10-17T15:40:24;26.23;;;19.23;;
73852;SDS011;62191;51.548;5.688;2022-10-17T15:42:55;31.60;;;20.55;;
73852;SDS011;62191;51.548;5.688;2022-10-17T15:45:23;30.70;;;19.85;;
73852;SDS011;62191;51.548;5.688;2022-10-17T15:47:56;28.17;;;18.82;;
73852;SDS011;62191;51.548;5.688;2022-10-17T15:50:20;22.40;;;18.65;;
73852;SDS011;62191;51.548;5.688;2022-10-17T15:52:48;29.00;;;19.55;;
73852;SDS011;62191;51.548;5.688;2022-10-17T15:55:18;29.65;;;19.55;;
73852;SDS011;62191;51.548;5.688;2022-10-17T15:57:46;22.73;;;18.67;;
73852;SDS011;62191;51.548;5.688;2022-10-17T16:00:18;26.95;;;18.67;;
73852;SDS011;62191;51.548;5.688;2022-10-17T16:02:44;30.43;;;19.10;;
73852;SDS011;62191;51.548;5.688;2022-10-17T16:05:14;32.08;;;19.80;;
73852;SDS011;62191;51.548;5.688;2022-10-17T16:07:42;32.53;;;21.02;;
73852;SDS011;62191;51.548;5.688;2022-10-17T16:10:13;31.33;;;18.80;;
73852;SDS011;62191;51.548;5.688;2022-10-17T16:12:41;27.22;;;19.37;;
73852;SDS011;62191;51.548;5.688;2022-10-17T16:15:16;28.80;;;18.98;;
73852;SDS011;62191;51.548;5.688;2022-10-17T16:17:44;28.90;;;20.82;;
73852;SDS011;62191;51.548;5.688;2022-10-17T16:20:12;37.98;;;22.35;;
73852;SDS011;62191;51.548;5.688;2022-10-17T16:22:41;31.75;;;20.35;;
73852;SDS011;62191;51.548;5.688;2022-10-17T16:25:19;31.07;;;21.12;;
73852;SDS011;62191;51.548;5.688;2022-10-17T16:27:48;44.98;;;23.85;;
73852;SDS011;62191;51.548;5.688;2022-10-17T16:30:17;44.75;;;25.55;;
73852;SDS011;62191;51.548;5.688;2022-10-17T16:32:46;35.75;;;23.38;;
73852;SDS011;62191;51.548;5.688;2022-10-17T16:35:15;35.13;;;23.20;;
73852;SDS011;62191;51.548;5.688;2022-10-17T16:37:46;34.43;;;23.05;;
73852;SDS011;62191;51.548;5.688;2022-10-17T16:40:13;35.30;;;23.22;;
73852;SDS011;62191;51.548;5.688;2022-10-17T16:42:41;42.88;;;24.52;;
73852;SDS011;62191;51.548;5.688;2022-10-17T16:45:09;39.75;;;25.45;;
73852;SDS011;62191;51.548;5.688;2022-10-17T16:47:43;43.73;;;27.37;;